Time;durP1;ratioP1;P1;durP2;ratioP2;P2;SDS_P1;SDS_P2;PMS_P1;PMS_P2;Temp;Humidity;BMP_temperature;BMP_pressure;BME280_temperature;BME280_humidity;BME280_pressure;Samples;Min_cycle;Max_cycle;Signal;HPM_P1;HPM_P2
2023/08/17 00:18:13;;;;;;;10.18;8.77;;;;;;;22.77;69.57;100513.34;41595585;28;20682;-78
2023/08/17 00:38:13;;;;;;;15.63;10.10;;;;;;;23.10;70.07;100545.84;41526731;28;20049;-79
2023/08/17 00:58:14;;;;;;;10.18;9.07;;;;;;;23.17;69.42;100555.81;41586989;28;20041;-77
2023/08/17 01:18:45;;;;;;;11.43;9.13;;;;;;;23.12;69.57;100557.09;41534728;28;20136;-76
2023/08/17 01:38:46;;;;;;;11.35;9.65;;;;;;;22.80;70.37;100523.66;41567515;28;20052;-77
2023/08/17 01:58:48;;;;;;;13.57;9.23;;;;;;;23.11;70.08;100556.28;41552450;28;20081;-79
2023/08/17 02:18:49;;;;;;;15.30;8.88;;;;;;;22.79;70.04;100529.88;41458764;28;20046;-77
2023/08/17 02:38:49;;;;;;;11.27;8.55;;;;;;;22.93;69.88;100536.69;41523821;28;21766;-77
2023/08/17 02:58:50;;;;;;;9.68;8.20;;;;;;;22.91;69.33;100538.59;41573604;28;20041;-76
2023/08/17 03:18:50;;;;;;;10.52;8.57;;;;;;;22.64;70.40;100501.16;41583957;28;20081;-78
2023/08/17 03:38:51;;;;;;;12.32;9.32;;;;;;;22.43;70.13;100463.34;41549654;28;20069;-79
2023/08/17 03:58:53;;;;;;;12.32;8.80;;;;;;;22.63;70.53;100523.25;41486980;28;21286;-77
2023/08/17 04:18:55;;;;;;;13.35;9.38;;;;;;;22.75;70.75;100545.13;41494015;28;20038;-78
2023/08/17 04:38:56;;;;;;;11.85;9.80;;;;;;;22.65;70.51;100534.50;41532702;28;20045;-78
2023/08/17 04:58:56;;;;;;;14.80;10.40;;;;;;;22.76;71.98;100551.28;41548471;28;20053;-77
2023/08/17 05:18:59;;;;;;;17.05;11.95;;;;;;;22.58;73.45;100558.88;41529844;28;20050;-80
2023/08/17 05:39:00;;;;;;;15.23;11.07;;;;;;;22.98;71.44;100516.84;41582633;28;20057;-81
2023/08/17 05:59:01;;;;;;;19.88;11.55;;;;;;;23.34;70.42;100549.09;41608776;28;20072;-82
2023/08/17 06:19:01;;;;;;;11.20;8.40;;;;;;;23.50;68.11;100527.50;41601666;28;20069;-84
2023/08/17 06:39:02;;;;;;;9.48;7.72;;;;;;;24.04;65.49;100489.50;41575966;28;20057;-79
2023/08/17 06:59:03;;;;;;;9.30;6.43;;;;;;;24.36;64.38;100531.59;41599756;28;20045;-81
2023/08/17 07:19:04;;;;;;;10.60;6.47;;;;;;;24.20;62.75;100533.94;41543511;28;20149;-82
2023/08/17 07:39:04;;;;;;;7.38;6.32;;;;;;;24.43;62.33;100540.66;41553971;28;20038;-83
2023/08/17 07:59:06;;;;;;;9.25;6.07;;;;;;;24.62;60.78;100480.78;41567934;28;20034;-72
2023/08/17 08:19:13;;;;;;;5.85;5.25;;;;;;;25.12;58.55;100526.63;41618878;28;20065;-76
2023/08/17 08:39:13;;;;;;;5.20;3.60;;;;;;;25.11;54.15;100515.22;41544310;28;20034;-75
2023/08/17 08:59:14;;;;;;;4.88;4.20;;;;;;;24.78;54.93;100469.66;41516675;28;20058;-76
2023/08/17 09:19:21;;;;;;;4.15;3.70;;;;;;;24.97;53.29;100475.91;41570989;28;20106;-77
2023/08/17 09:39:22;;;;;;;7.22;4.10;;;;;;;24.26;53.54;100317.25;41572245;28;20072;-74
2023/08/17 09:59:23;;;;;;;7.85;4.30;;;;;;;25.73;53.67;100473.19;41578474;28;20507;-77
2023/08/17 10:20:01;;;;;;;6.22;3.88;;;;;;;25.70;52.88;100470.00;41494203;28;20105;-75
2023/08/17 10:40:03;;;;;;;4.03;3.30;;;;;;;25.59;52.03;100459.59;41606562;28;20045;-79
2023/08/17 11:00:17;;;;;;;5.03;4.18;;;;;;;25.73;51.29;100469.69;41590287;28;20038;-75
2023/08/17 11:20:17;;;;;;;4.03;3.63;;;;;;;25.10;51.41;100368.66;41449549;28;20086;-73
2023/08/17 11:40:18;;;;;;;3.70;3.38;;;;;;;25.65;51.85;100430.66;41343895;28;20050;-75
2023/08/17 12:00:20;;;;;;;5.25;3.65;;;;;;;26.21;52.13;100450.03;41276210;28;20422;-75
2023/08/17 12:20:21;;;;;;;4.60;3.70;;;;;;;26.01;50.95;100403.34;41391995;28;20084;-81
2023/08/17 12:40:22;;;;;;;6.50;3.65;;;;;;;26.40;51.03;100399.59;41600476;28;20041;-76
2023/08/17 13:00:22;;;;;;;8.82;4.25;;;;;;;26.76;50.58;100392.44;41496105;28;20052;-76
2023/08/17 13:20:23;;;;;;;6.65;4.13;;;;;;;26.89;51.20;100352.19;41548884;28;20052;-73
2023/08/17 13:40:24;;;;;;;6.28;3.67;;;;;;;26.91;51.27;100365.31;41573800;28;20045;-77
2023/08/17 14:00:26;;;;;;;5.65;4.28;;;;;;;26.62;52.02;100358.44;41576521;28;20061;-74
2023/08/17 14:20:27;;;;;;;8.52;4.22;;;;;;;26.42;52.85;100371.09;41629024;28;20043;-68
2023/08/17 14:40:27;;;;;;;7.43;4.47;;;;;;;26.31;53.97;100359.72;41618554;28;20209;-70
2023/08/17 15:00:35;;;;;;;8.13;5.10;;;;;;;26.15;58.16;100341.00;41436227;28;20417;-74
2023/08/17 15:20:35;;;;;;;8.95;5.40;;;;;;;26.26;57.69;100340.75;41479749;28;20057;-72
2023/08/17 15:40:37;;;;;;;6.38;5.03;;;;;;;26.20;56.80;100334.25;41410615;28;20037;-74
2023/08/17 16:00:39;;;;;;;7.53;5.15;;;;;;;26.16;56.72;100348.00;41535985;28;20041;-69
2023/08/17 16:20:40;;;;;;;8.43;5.10;;;;;;;26.00;57.50;100324.75;41452856;28;20199;-69
2023/08/17 16:40:42;;;;;;;15.90;7.93;;;;;;;26.08;60.18;100364.66;41430577;28;20061;-71
2023/08/17 17:00:42;;;;;;;18.65;8.90;;;;;;;26.28;60.64;100341.44;41480052;28;20057;-72
2023/08/17 17:20:44;;;;;;;12.88;8.27;;;;;;;26.05;62.53;100352.50;41483538;28;20100;-78
2023/08/17 17:40:46;;;;;;;11.35;7.57;;;;;;;25.40;64.93;100366.75;41500810;28;20184;-76
2023/08/17 18:00:47;;;;;;;9.43;7.43;;;;;;;24.46;67.46;100338.41;41542335;28;20041;-75
2023/08/17 18:20:47;;;;;;;12.43;8.15;;;;;;;24.62;68.36;100393.44;41481526;28;20042;-70
2023/08/17 18:40:49;;;;;;;11.98;8.32;;;;;;;24.40;68.16;100370.72;41411999;28;20568;-76
2023/08/17 19:00:50;;;;;;;12.05;8.10;;;;;;;24.39;68.27;100406.09;41501514;28;20073;-73
2023/08/17 19:20:51;;;;;;;10.98;7.85;;;;;;;24.39;67.96;100421.97;41645780;28;20034;-76
2023/08/17 19:40:54;;;;;;;11.60;7.53;;;;;;;24.75;66.50;100409.03;41638083;28;20048;-76
2023/08/17 20:00:55;;;;;;;8.32;7.13;;;;;;;24.77;66.01;100417.69;41584725;28;20966;-76
2023/08/17 20:20:56;;;;;;;10.27;7.10;;;;;;;24.59;65.88;100406.94;41540400;28;20548;-70
2023/08/17 20:41:01;;;;;;;12.57;7.72;;;;;;;24.56;66.25;100423.94;41549281;28;20053;-68
2023/08/17 21:01:07;;;;;;;13.82;7.57;;;;;;;24.87;64.90;100433.56;41499685;28;20064;-69
2023/08/17 21:21:08;;;;;;;10.68;7.32;;;;;;;24.86;64.42;100443.28;41539834;28;20138;-69
2023/08/17 21:41:08;;;;;;;7.32;6.35;;;;;;;24.77;64.52;100437.03;41498450;28;20045;-69
2023/08/17 22:01:09;;;;;;;10.73;6.93;;;;;;;24.65;64.47;100426.72;41564710;28;20042;-67
2023/08/17 22:21:10;;;;;;;7.88;6.72;;;;;;;24.60;65.07;100432.44;41518120;28;20133;-68
2023/08/17 22:41:11;;;;;;;8.00;7.03;;;;;;;24.47;65.46;100424.75;41552499;28;20068;-71
2023/08/17 23:01:11;;;;;;;8.75;7.13;;;;;;;24.40;65.67;100428.94;41518625;28;20049;-70
2023/08/17 23:21:11;;;;;;;10.88;7.47;;;;;;;24.39;65.88;100420.19;41562400;28;20046;-69
2023/08/17 23:41:12;;;;;;;9.38;6.45;;;;;;;24.34;65.70;100417.13;41486049;28;20463;-70
